createdAt,value
2022-12-03T00:05:48.956Z,37
2022-12-03T00:34:49.860Z,39
2022-12-03T01:03:49.893Z,38
2022-12-03T01:33:07.632Z,41
2022-12-03T02:02:25.141Z,40
2022-12-03T02:31:45.939Z,38
2022-12-03T03:00:50.723Z,39
2022-12-03T03:30:02.208Z,41
2022-12-03T03:59:19.801Z,38
2022-12-03T04:28:45.277Z,40
2022-12-03T04:58:03.543Z,38
2022-12-03T05:27:20.267Z,39
2022-12-03T05:56:01.733Z,41
2022-12-03T06:25:21.524Z,41
2022-12-03T06:54:30.967Z,45
2022-12-03T07:23:44.216Z,44
2022-12-03T07:53:02.805Z,47
2022-12-03T08:22:20.955Z,49
2022-12-03T08:51:40.540Z,47
2022-12-03T09:21:03.532Z,49
2022-12-03T09:50:22.902Z,57
2022-12-03T10:19:43.248Z,52
2022-12-03T10:49:04.035Z,52
2022-12-03T11:18:24.430Z,54
2022-12-03T11:47:41.264Z,52
2022-12-03T12:17:01.436Z,52
2022-12-03T13:14:59.979Z,56
2022-12-03T13:44:15.039Z,52
2022-12-03T14:13:28.763Z,53
2022-12-03T14:42:39.141Z,58
2022-12-03T15:11:55.759Z,57
2022-12-03T15:41:13.224Z,58
2022-12-03T16:10:32.583Z,64
2022-12-03T16:39:47.561Z,66
2022-12-03T17:09:05.562Z,62
2022-12-03T17:38:26.169Z,60
2022-12-03T18:07:39.520Z,73
2022-12-03T18:36:49.530Z,72
2022-12-03T19:06:01.827Z,68
2022-12-03T19:35:14.076Z,61
2022-12-03T20:04:20.371Z,66
2022-12-03T20:33:24.334Z,68
2022-12-03T21:02:31.588Z,66
2022-12-03T21:31:41.651Z,60
2022-12-03T22:01:01.805Z,65
2022-12-03T22:30:10.491Z,68
2022-12-03T22:59:26.445Z,73
2022-12-03T23:28:44.480Z,71
2022-12-03T23:58:06.317Z,71
